Koosah.INFO

KSEA Weather Observatons

This table shows observations taken by aircraft in the Seattle, WA, US area since 2018-07-20T11:24:22-0700. By default, it is sorted by time observed in ascending order. Click on a column heading to sort by that column instead. Click again on the same column heading to sort in descending order.

Show observations taken in the last:

Return to main page.

Time Observed Time Received Altitude (ft) Latitude Longitude Temperature (˚C) Wind Direction Wind speed (kn) Frequency (MHz) Source
2018-07-20T11:54:00-0700 2018-07-20T12:02:31-0700 200 47.27 -122.186 15.0 191 2 130.025 .N590NW
2018-07-20T11:55:00-0700 2018-07-20T12:02:31-0700 1700 47.246 -122.186 10.0 99 1 130.025 .N590NW
2018-07-20T11:56:00-0700 2018-07-20T12:02:31-0700 3200 47.206 -122.185 8.0 60 5 130.025 .N590NW
2018-07-20T11:56:00-0700 2018-07-20T12:02:31-0700 4700 47.186 -122.16 5.0 355 6 130.025 .N590NW
2018-07-20T11:57:00-0700 2018-07-20T12:02:31-0700 6200 47.194 -122.12 5.0 302 14 130.025 .N590NW
2018-07-20T11:57:00-0700 2018-07-20T11:59:12-0700 8857 47.3795 -122.5727 2.2 284 15 130.025 .N524AS
2018-07-20T11:57:00-0700 2018-07-20T11:59:12-0700 9853 47.3987 -122.5971 1.7 284 21 130.025 .N524AS
2018-07-20T11:57:00-0700 2018-07-20T12:07:25-0700 19969 48.3279 -123.5407 -19.5 267 49 130.025 .N525AS
2018-07-20T11:58:00-0700 2018-07-20T12:02:31-0700 7700 47.216 -122.091 3.0 282 12 130.025 .N590NW
2018-07-20T11:58:00-0700 2018-07-20T11:59:12-0700 10793 47.4176 -122.6216 1.0 (missing) (missing) 130.025 .N524AS
2018-07-20T11:58:00-0700 2018-07-20T12:07:25-0700 18231 48.2727 -123.4083 -15.0 274 45 130.025 .N525AS
2018-07-20T11:59:00-0700 2018-07-20T12:07:25-0700 16811 48.2191 -123.2793 -12.0 (missing) (missing) 130.025 .N525AS
2018-07-20T11:59:00-0700 2018-07-20T12:07:13-0700 22202 46.3 -122.43 -21.0 258 50 130.025 .N733SA
2018-07-20T12:00:00-0700 2018-07-20T12:01:15-0700 1824 47.488 -122.267 10.7 238 3 131.55 .N807TJ
2018-07-20T12:00:00-0700 2018-07-20T12:01:15-0700 1892 47.4829 -122.2627 10.7 206 4 131.55 .N807TJ
2018-07-20T12:00:00-0700 2018-07-20T12:01:15-0700 1952 47.4777 -122.2582 10.7 206 3 131.55 .N807TJ
2018-07-20T12:00:00-0700 2018-07-20T12:07:13-0700 20218 46.37 -122.43 -16.3 262 46 130.025 .N733SA
2018-07-20T12:01:00-0700 2018-07-20T12:07:28-0700 12912 47.01 -122.31 -2.0 276 29 130.025 .N909WN
2018-07-20T12:01:00-0700 2018-07-20T12:02:34-0700 21368 46.2581 -122.9589 -19.0 254 47 131.55 .N619AS
2018-07-20T12:01:00-0700 2018-07-20T12:02:34-0700 22140 46.2939 -122.9704 -20.5 253 50 131.55 .N619AS
2018-07-20T12:02:00-0700 2018-07-20T12:07:28-0700 11806 47.06 -122.29 0.0 275 24 130.025 .N909WN
2018-07-20T12:02:00-0700 2018-07-20T12:02:34-0700 22792 46.3303 -122.9821 -22.5 252 51 131.55 .N619AS
2018-07-20T12:04:00-0700 2018-07-20T12:07:35-0700 9398 47.15 -122.28 3.0 288 17 130.025 .N909WN
2018-07-20T12:04:00-0700 2018-07-20T12:14:04-0700 21977 46.8991 -121.0116 -21.2 255 55 130.025 .N440AS
2018-07-20T12:05:00-0700 2018-07-20T12:07:35-0700 8747 47.19 -122.27 3.0 286 14 130.025 .N909WN
2018-07-20T12:05:00-0700 2018-07-20T12:06:30-0700 14080 47.429 -121.6809 -4.5 272 31 131.55 .N807TJ
2018-07-20T12:05:00-0700 2018-07-20T12:14:04-0700 20986 46.893 -121.1254 -19.0 258 48 130.025 .N440AS
2018-07-20T12:06:00-0700 2018-07-20T12:07:35-0700 7830 47.23 -122.27 3.3 295 9 130.025 .N909WN
2018-07-20T12:06:00-0700 2018-07-20T12:06:30-0700 15056 47.4283 -121.6265 -6.2 267 32 131.55 .N807TJ
2018-07-20T12:06:00-0700 2018-07-20T12:06:30-0700 15976 47.4274 -121.5717 -8.0 262 34 131.55 .N807TJ
2018-07-20T12:06:00-0700 2018-07-20T12:14:04-0700 19975 46.9411 -121.2294 -16.0 (missing) (missing) 130.025 .N440AS
2018-07-20T12:06:00-0700 2018-07-20T12:07:35-0700 30565 46.8321 -123.139 -41.7 251 61 131.55 .N619AS
2018-07-20T12:06:00-0700 2018-07-20T12:07:35-0700 30986 46.8726 -123.1519 -42.7 248 61 131.55 .N619AS
2018-07-20T12:07:00-0700 2018-07-20T12:11:56-0700 19305 46.9734 -121.2985 -15.2 252 48 130.025 .N440AS
2018-07-20T12:07:00-0700 2018-07-20T12:07:35-0700 31401 46.9136 -123.1648 -43.5 251 62 131.55 .N619AS
2018-07-20T12:07:00-0700 2018-07-20T12:09:10-0700 31472 46.9196 -123.1668 -43.7 251 62 131.55 .N619AS
2018-07-20T12:07:00-0700 2018-07-20T12:09:10-0700 31940 46.9608 -123.1797 -44.7 250 63 131.55 .N619AS
2018-07-20T12:07:00-0700 2018-07-20T12:09:10-0700 32390 47.002 -123.1927 -46.0 (missing) (missing) 131.55 .N619AS
2018-07-20T12:08:00-0700 2018-07-20T12:13:35-0700 5600 47.791 -122.316 4.0 324 10 130.025 .N804DN
2018-07-20T12:08:00-0700 2018-07-20T12:13:51-0700 9695 47.17 -122.27 3.0 288 20 130.025 .N733SA
2018-07-20T12:08:00-0700 2018-07-20T12:10:07-0700 31854 48.17 -123.6909 -45.5 257 72 131.55 .N524AS
2018-07-20T12:08:00-0700 2018-07-20T12:10:07-0700 32399 48.2018 -123.7245 -46.7 255 76 131.55 .N524AS
2018-07-20T12:09:00-0700 2018-07-20T12:13:35-0700 4900 47.735 -122.316 4.0 196 2 130.025 .N804DN
2018-07-20T12:09:00-0700 2018-07-20T12:13:51-0700 8631 47.21 -122.27 3.5 293 15 130.025 .N733SA
2018-07-20T12:09:00-0700 2018-07-20T12:11:56-0700 17296 47.0685 -121.5034 -11.0 256 41 130.025 .N440AS
2018-07-20T12:09:00-0700 2018-07-20T12:10:07-0700 32904 48.2337 -123.758 -47.2 255 78 131.55 .N524AS
2018-07-20T12:10:00-0700 2018-07-20T12:13:14-0700 4621 47.37 -122.27 4.8 167 3 130.025 .N909WN
2018-07-20T12:10:00-0700 2018-07-20T12:13:35-0700 4800 47.685 -122.316 5.0 181 1 130.025 .N804DN
2018-07-20T12:10:00-0700 2018-07-20T12:13:51-0700 7499 47.25 -122.27 4.0 305 9 130.025 .N733SA
2018-07-20T12:11:00-0700 2018-07-20T12:13:35-0700 3700 47.634 -122.316 7.0 238 1 130.025 .N804DN
2018-07-20T12:11:00-0700 2018-07-20T12:13:14-0700 3728 47.4 -122.27 7.0 171 3 130.025 .N909WN
2018-07-20T12:11:00-0700 2018-07-20T12:14:18-0700 14959 47.1744 -121.7341 -6.5 262 34 130.025 .N440AS
2018-07-20T12:11:00-0700 2018-07-20T12:11:56-0700 15285 47.1596 -121.7015 -6.7 260 37 130.025 .N440AS
2018-07-20T12:12:00-0700 2018-07-20T12:13:14-0700 3733 47.44 -122.27 6.8 193 3 130.025 .N909WN
2018-07-20T12:12:00-0700 2018-07-20T12:14:18-0700 13963 47.2189 -121.8313 -4.5 269 33 130.025 .N440AS
2018-07-20T12:13:00-0700 2018-07-20T12:16:18-0700 3262 47.6216 -122.3066 7.5 249 1 130.025 .N525AS
2018-07-20T12:13:00-0700 2018-07-20T12:14:18-0700 12957 47.2621 -121.9262 -2.7 274 30 130.025 .N440AS
2018-07-20T12:14:00-0700 2018-07-20T12:16:18-0700 2170 47.5697 -122.307 9.7 29 2 130.025 .N525AS
2018-07-20T12:15:00-0700 2018-07-20T12:16:18-0700 1297 47.5229 -122.3073 12.0 214 3 130.025 .N525AS
2018-07-20T12:24:00-0700 2018-07-20T12:26:25-0700 11871 47.21 -122.02 -0.8 277 22 130.025 .N923WN
2018-07-20T12:25:00-0700 2018-07-20T12:26:25-0700 12985 47.21 -121.59 -2.8 277 27 130.025 .N923WN
2018-07-20T12:25:00-0700 2018-07-20T12:26:25-0700 14037 47.22 -121.56 -4.8 276 32 130.025 .N923WN
2018-07-20T12:26:00-0700 2018-07-20T12:27:10-0700 5340 47.188 -122.17 5.0 357 6 130.025 .N931AN
2018-07-20T12:26:00-0700 2018-07-20T12:27:10-0700 6280 47.184 -122.149 4.0 319 12 130.025 .N931AN
2018-07-20T12:26:00-0700 2018-07-20T12:27:10-0700 7140 47.187 -122.125 3.0 305 13 130.025 .N931AN
2018-07-20T12:26:00-0700 2018-07-20T12:27:10-0700 8150 47.193 -122.102 2.0 279 15 130.025 .N931AN
2018-07-20T12:26:00-0700 2018-07-20T12:27:10-0700 9130 47.199 -122.078 2.0 281 19 130.025 .N931AN
2018-07-20T12:28:00-0700 2018-07-20T12:28:53-0700 10030 47.205 -122.053 1.0 283 21 130.025 .N931AN
2018-07-20T12:28:00-0700 2018-07-20T12:28:53-0700 10440 47.211 -122.027 1.0 275 20 130.025 .N931AN
2018-07-20T12:28:00-0700 2018-07-20T12:28:53-0700 11030 47.218 -121.599 0.0 270 21 130.025 .N931AN
2018-07-20T12:28:00-0700 2018-07-20T12:28:53-0700 11890 47.225 -121.569 -1.0 263 21 130.025 .N931AN
2018-07-20T12:28:00-0700 2018-07-20T12:28:53-0700 12750 47.232 -121.539 -3.0 264 28 130.025 .N931AN
2018-07-20T12:32:00-0700 2018-07-20T12:32:07-0700 17080 47.257 -121.341 -10.0 255 41 130.025 .N931AN
2018-07-20T12:32:00-0700 2018-07-20T12:32:07-0700 17820 47.257 -121.306 -12.0 253 43 130.025 .N931AN
2018-07-20T12:32:00-0700 2018-07-20T12:32:07-0700 18570 47.256 -121.269 -14.0 250 42 130.025 .N931AN
2018-07-20T12:32:00-0700 2018-07-20T12:32:07-0700 19360 47.256 -121.233 -16.0 251 45 130.025 .N931AN
2018-07-20T12:32:00-0700 2018-07-20T12:32:07-0700 20050 47.255 -121.196 -17.0 249 49 130.025 .N931AN
2018-07-20T12:33:00-0700 2018-07-20T12:34:09-0700 20730 47.255 -121.158 -19.0 248 51 130.025 .N931AN
2018-07-20T12:33:00-0700 2018-07-20T12:34:09-0700 21400 47.254 -121.12 -20.0 248 52 130.025 .N931AN
2018-07-20T12:33:00-0700 2018-07-20T12:34:09-0700 22050 47.253 -121.082 -22.0 249 53 130.025 .N931AN
2018-07-20T12:33:00-0700 2018-07-20T12:34:09-0700 22700 47.253 -121.043 -24.0 249 57 130.025 .N931AN
2018-07-20T12:33:00-0700 2018-07-20T12:34:09-0700 23220 47.252 -121.003 -24.0 250 62 130.025 .N931AN
2018-07-20T12:34:00-0700 2018-07-20T12:34:57-0700 2930 47.363 -122.299 10.0 191 2 130.025 .N1613B
2018-07-20T12:42:00-0700 2018-07-20T12:43:20-0700 4538 47.3088 -122.3106 6.2 55 2 130.025 .N318AS
2018-07-20T12:42:00-0700 2018-07-20T12:43:20-0700 5460 47.2841 -122.3104 6.0 348 7 130.025 .N318AS
2018-07-20T12:43:00-0700 2018-07-20T12:43:20-0700 6241 47.2585 -122.3102 5.5 333 11 130.025 .N318AS
2018-07-20T12:46:00-0700 2018-07-20T12:48:45-0700 1631 47.24 -122.18 11.8 164 4 130.025 .N8660A
2018-07-20T12:46:00-0700 2018-07-20T12:48:45-0700 1765 47.24 -122.18 11.5 161 4 130.025 .N8660A
2018-07-20T12:46:00-0700 2018-07-20T12:48:52-0700 2030 47.23 -122.18 11.0 132 3 130.025 .N8660A
2018-07-20T12:47:00-0700 2018-07-20T12:48:52-0700 2168 47.23 -122.18 10.7 133 3 130.025 .N8660A
2018-07-20T12:47:00-0700 2018-07-20T12:48:52-0700 2382 47.23 -122.18 10.5 139 3 130.025 .N8660A
2018-07-20T12:54:00-0700 2018-07-20T12:56:12-0700 2029 47.3939 -122.3121 10.7 197 0 130.025 .N302AS
2018-07-20T12:54:00-0700 2018-07-20T12:56:12-0700 2192 47.3879 -122.3119 10.5 156 0 130.025 .N302AS
2018-07-20T12:54:00-0700 2018-07-20T12:56:12-0700 2386 47.3818 -122.3118 10.0 (missing) (missing) 130.025 .N302AS
2018-07-20T12:56:00-0700 2018-07-20T12:57:35-0700 5225 47.305 -122.3034 5.5 311 3 130.025 .N302AS
2018-07-20T12:56:00-0700 2018-07-20T12:57:35-0700 5915 47.2818 -122.2925 6.0 315 6 130.025 .N302AS
2018-07-20T12:56:00-0700 2018-07-20T12:57:35-0700 6698 47.2576 -122.2812 5.0 313 12 130.025 .N302AS
2018-07-20T13:04:00-0700 2018-07-20T13:14:06-0700 15724 48.1975 -123.1788 -10.2 277 39 130.025 .N306AS
2018-07-20T13:04:00-0700 2018-07-20T13:06:39-0700 15732 48.1985 -123.1778 -10.2 277 39 131.55 .N306AS
2018-07-20T13:05:00-0700 2018-07-20T13:14:06-0700 14759 48.1177 -123.1795 -8.2 282 32 130.025 .N306AS
2018-07-20T13:05:00-0700 2018-07-20T13:06:39-0700 15074 48.1463 -123.197 -9.0 280 32 131.55 .N306AS
2018-07-20T13:05:00-0700 2018-07-20T13:06:39-0700 15445 48.1743 -123.1957 -9.7 275 33 131.55 .N306AS
2018-07-20T13:06:00-0700 2018-07-20T13:14:06-0700 13786 48.0777 -123.0544 -6.0 (missing) (missing) 130.025 .N306AS
2018-07-20T13:07:00-0700 2018-07-20T13:14:37-0700 12778 48.0517 -122.9193 -5.0 274 30 130.025 .N306AS
2018-07-20T13:08:00-0700 2018-07-20T13:14:37-0700 11388 47.9956 -122.828 -1.5 278 25 130.025 .N306AS
2018-07-20T13:09:00-0700 2018-07-20T13:14:37-0700 10169 47.9149 -122.7938 1.7 279 24 130.025 .N306AS
2018-07-20T13:13:00-0700 2018-07-20T13:23:09-0700 6910 47.6441 -122.6285 4.2 319 11 130.025 .N306AS
2018-07-20T13:14:00-0700 2018-07-20T13:23:09-0700 5968 47.5934 -122.566 5.5 348 4 130.025 .N306AS
2018-07-20T13:15:00-0700 2018-07-20T13:23:09-0700 5736 47.5793 -122.4747 5.0 (missing) (missing) 130.025 .N306AS
2018-07-20T13:23:00-0700 2018-07-20T13:23:29-0700 4860 47.185 -122.185 6.0 129 1 130.025 .N921AN
2018-07-20T13:23:00-0700 2018-07-20T13:23:29-0700 5700 47.169 -122.178 6.0 315 7 130.025 .N921AN
2018-07-20T13:23:00-0700 2018-07-20T13:23:29-0700 6570 47.154 -122.171 6.0 305 10 130.025 .N921AN
2018-07-20T13:23:00-0700 2018-07-20T13:23:29-0700 7730 47.138 -122.163 4.0 290 14 130.025 .N921AN
2018-07-20T13:23:00-0700 2018-07-20T13:23:29-0700 8640 47.122 -122.155 3.0 293 17 130.025 .N921AN